sensor_id;sensor_type;location;lat;lon;timestamp;P1;durP1;ratioP1;P2;durP2;ratioP2
19207;SDS011;9737;59.466;18.036;2022-09-09T00:02:18;3.25;;;2.60;;
19207;SDS011;9737;59.466;18.036;2022-09-09T00:04:50;4.97;;;2.70;;
19207;SDS011;9737;59.466;18.036;2022-09-09T00:07:33;3.67;;;2.65;;
19207;SDS011;9737;59.466;18.036;2022-09-09T00:10:16;3.00;;;2.42;;
19207;SDS011;9737;59.466;18.036;2022-09-09T00:12:53;2.80;;;2.50;;
19207;SDS011;9737;59.466;18.036;2022-09-09T00:15:26;6.25;;;3.00;;
19207;SDS011;9737;59.466;18.036;2022-09-09T00:18:02;3.78;;;2.83;;
19207;SDS011;9737;59.466;18.036;2022-09-09T00:20:38;3.17;;;2.78;;
19207;SDS011;9737;59.466;18.036;2022-09-09T00:23:12;2.65;;;2.42;;
19207;SDS011;9737;59.466;18.036;2022-09-09T00:25:46;3.58;;;2.70;;
19207;SDS011;9737;59.466;18.036;2022-09-09T00:28:23;3.45;;;2.85;;
19207;SDS011;9737;59.466;18.036;2022-09-09T00:30:53;2.60;;;2.40;;
19207;SDS011;9737;59.466;18.036;2022-09-09T00:33:24;3.47;;;2.70;;
19207;SDS011;9737;59.466;18.036;2022-09-09T00:35:57;3.50;;;2.65;;
19207;SDS011;9737;59.466;18.036;2022-09-09T00:38:28;3.17;;;2.70;;
19207;SDS011;9737;59.466;18.036;2022-09-09T00:41:03;4.25;;;2.70;;
19207;SDS011;9737;59.466;18.036;2022-09-09T00:43:35;3.38;;;2.92;;
19207;SDS011;9737;59.466;18.036;2022-09-09T00:46:15;3.35;;;3.00;;
19207;SDS011;9737;59.466;18.036;2022-09-09T00:48:58;3.55;;;2.85;;
19207;SDS011;9737;59.466;18.036;2022-09-09T00:51:36;3.72;;;2.92;;
19207;SDS011;9737;59.466;18.036;2022-09-09T00:54:21;3.17;;;2.75;;
19207;SDS011;9737;59.466;18.036;2022-09-09T00:56:59;3.08;;;2.55;;
19207;SDS011;9737;59.466;18.036;2022-09-09T00:59:35;3.38;;;2.65;;
19207;SDS011;9737;59.466;18.036;2022-09-09T01:02:14;3.28;;;2.90;;
19207;SDS011;9737;59.466;18.036;2022-09-09T01:04:49;4.32;;;2.80;;
19207;SDS011;9737;59.466;18.036;2022-09-09T01:07:19;3.40;;;3.03;;
19207;SDS011;9737;59.466;18.036;2022-09-09T01:09:51;4.28;;;2.67;;
19207;SDS011;9737;59.466;18.036;2022-09-09T01:12:26;3.33;;;2.80;;
19207;SDS011;9737;59.466;18.036;2022-09-09T01:15:03;3.00;;;2.67;;
19207;SDS011;9737;59.466;18.036;2022-09-09T01:17:39;3.50;;;2.78;;
19207;SDS011;9737;59.466;18.036;2022-09-09T01:20:15;3.60;;;2.85;;
19207;SDS011;9737;59.466;18.036;2022-09-09T01:22:52;3.03;;;2.67;;
19207;SDS011;9737;59.466;18.036;2022-09-09T01:26:04;3.90;;;2.70;;
19207;SDS011;9737;59.466;18.036;2022-09-09T01:28:41;3.40;;;2.72;;
19207;SDS011;9737;59.466;18.036;2022-09-09T01:31:11;3.67;;;3.13;;
19207;SDS011;9737;59.466;18.036;2022-09-09T01:33:44;3.22;;;2.72;;
19207;SDS011;9737;59.466;18.036;2022-09-09T01:36:13;3.40;;;2.60;;
19207;SDS011;9737;59.466;18.036;2022-09-09T01:38:50;3.53;;;2.63;;
19207;SDS011;9737;59.466;18.036;2022-09-09T01:41:19;3.33;;;3.03;;
19207;SDS011;9737;59.466;18.036;2022-09-09T01:43:47;7.00;;;3.00;;
19207;SDS011;9737;59.466;18.036;2022-09-09T01:46:18;2.80;;;2.33;;
19207;SDS011;9737;59.466;18.036;2022-09-09T01:48:50;2.53;;;2.20;;
19207;SDS011;9737;59.466;18.036;2022-09-09T01:51:19;3.45;;;2.65;;
19207;SDS011;9737;59.466;18.036;2022-09-09T01:53:47;3.58;;;2.40;;
19207;SDS011;9737;59.466;18.036;2022-09-09T01:56:18;3.95;;;2.67;;
19207;SDS011;9737;59.466;18.036;2022-09-09T01:59:03;2.70;;;2.50;;
19207;SDS011;9737;59.466;18.036;2022-09-09T02:01:47;3.80;;;2.50;;
19207;SDS011;9737;59.466;18.036;2022-09-09T02:04:30;3.67;;;2.20;;
19207;SDS011;9737;59.466;18.036;2022-09-09T02:07:06;2.40;;;2.20;;
19207;SDS011;9737;59.466;18.036;2022-09-09T02:09:43;3.08;;;2.13;;
19207;SDS011;9737;59.466;18.036;2022-09-09T02:12:16;2.42;;;2.22;;
19207;SDS011;9737;59.466;18.036;2022-09-09T02:14:48;6.22;;;2.30;;
19207;SDS011;9737;59.466;18.036;2022-09-09T02:17:21;2.75;;;2.38;;
19207;SDS011;9737;59.466;18.036;2022-09-09T02:19:56;2.30;;;2.10;;
19207;SDS011;9737;59.466;18.036;2022-09-09T02:22:29;4.07;;;2.15;;
19207;SDS011;9737;59.466;18.036;2022-09-09T02:25:01;3.15;;;2.22;;
19207;SDS011;9737;59.466;18.036;2022-09-09T02:27:33;4.65;;;1.90;;
19207;SDS011;9737;59.466;18.036;2022-09-09T02:30:02;3.17;;;2.10;;
19207;SDS011;9737;59.466;18.036;2022-09-09T02:32:32;1.67;;;1.58;;
19207;SDS011;9737;59.466;18.036;2022-09-09T02:35:05;2.88;;;1.70;;
19207;SDS011;9737;59.466;18.036;2022-09-09T02:37:37;1.92;;;1.50;;
19207;SDS011;9737;59.466;18.036;2022-09-09T02:40:07;2.65;;;1.85;;
19207;SDS011;9737;59.466;18.036;2022-09-09T02:42:41;4.30;;;1.70;;
19207;SDS011;9737;59.466;18.036;2022-09-09T02:45:10;2.55;;;1.92;;
19207;SDS011;9737;59.466;18.036;2022-09-09T02:47:41;4.00;;;1.85;;
19207;SDS011;9737;59.466;18.036;2022-09-09T02:50:16;1.65;;;1.55;;
19207;SDS011;9737;59.466;18.036;2022-09-09T02:52:52;2.40;;;1.95;;
19207;SDS011;9737;59.466;18.036;2022-09-09T02:55:33;1.70;;;1.60;;
19207;SDS011;9737;59.466;18.036;2022-09-09T02:58:08;1.73;;;1.63;;
19207;SDS011;9737;59.466;18.036;2022-09-09T03:00:39;2.35;;;1.70;;
19207;SDS011;9737;59.466;18.036;2022-09-09T03:03:07;3.30;;;1.60;;
19207;SDS011;9737;59.466;18.036;2022-09-09T03:05:36;1.52;;;1.42;;
19207;SDS011;9737;59.466;18.036;2022-09-09T03:08:05;1.90;;;1.65;;
19207;SDS011;9737;59.466;18.036;2022-09-09T03:10:33;2.67;;;1.85;;
19207;SDS011;9737;59.466;18.036;2022-09-09T03:13:03;1.50;;;1.40;;
19207;SDS011;9737;59.466;18.036;2022-09-09T03:15:33;2.05;;;1.70;;
19207;SDS011;9737;59.466;18.036;2022-09-09T03:18:01;2.08;;;1.70;;
19207;SDS011;9737;59.466;18.036;2022-09-09T03:20:30;2.00;;;1.60;;
19207;SDS011;9737;59.466;18.036;2022-09-09T03:22:59;1.92;;;1.80;;
19207;SDS011;9737;59.466;18.036;2022-09-09T03:25:28;2.65;;;1.48;;
19207;SDS011;9737;59.466;18.036;2022-09-09T03:27:57;2.00;;;1.73;;
19207;SDS011;9737;59.466;18.036;2022-09-09T03:30:26;1.70;;;1.55;;
19207;SDS011;9737;59.466;18.036;2022-09-09T03:32:56;1.67;;;1.58;;
19207;SDS011;9737;59.466;18.036;2022-09-09T03:35:24;2.38;;;1.50;;
19207;SDS011;9737;59.466;18.036;2022-09-09T03:37:52;3.35;;;1.58;;
19207;SDS011;9737;59.466;18.036;2022-09-09T03:40:22;1.95;;;1.70;;
19207;SDS011;9737;59.466;18.036;2022-09-09T03:42:49;1.65;;;1.55;;
19207;SDS011;9737;59.466;18.036;2022-09-09T03:45:17;2.10;;;1.50;;
19207;SDS011;9737;59.466;18.036;2022-09-09T03:47:46;2.65;;;1.60;;
19207;SDS011;9737;59.466;18.036;2022-09-09T03:50:15;1.67;;;1.58;;
19207;SDS011;9737;59.466;18.036;2022-09-09T03:52:51;3.25;;;1.70;;
19207;SDS011;9737;59.466;18.036;2022-09-09T03:55:19;1.73;;;1.60;;
19207;SDS011;9737;59.466;18.036;2022-09-09T03:57:47;1.80;;;1.70;;
19207;SDS011;9737;59.466;18.036;2022-09-09T04:00:15;2.78;;;1.70;;
19207;SDS011;9737;59.466;18.036;2022-09-09T04:02:45;1.85;;;1.70;;
19207;SDS011;9737;59.466;18.036;2022-09-09T04:05:13;1.80;;;1.70;;
19207;SDS011;9737;59.466;18.036;2022-09-09T04:07:43;2.97;;;2.30;;
19207;SDS011;9737;59.466;18.036;2022-09-09T04:10:11;2.25;;;1.80;;
19207;SDS011;9737;59.466;18.036;2022-09-09T04:12:39;1.75;;;1.55;;
19207;SDS011;9737;59.466;18.036;2022-09-09T04:15:10;2.97;;;1.90;;
19207;SDS011;9737;59.466;18.036;2022-09-09T04:17:38;2.70;;;2.00;;
19207;SDS011;9737;59.466;18.036;2022-09-09T04:20:06;2.15;;;1.70;;
19207;SDS011;9737;59.466;18.036;2022-09-09T04:22:37;3.92;;;1.83;;
19207;SDS011;9737;59.466;18.036;2022-09-09T04:25:07;1.80;;;1.70;;
19207;SDS011;9737;59.466;18.036;2022-09-09T04:27:53;3.25;;;1.70;;
19207;SDS011;9737;59.466;18.036;2022-09-09T04:30:39;2.20;;;2.00;;
19207;SDS011;9737;59.466;18.036;2022-09-09T04:33:08;6.45;;;1.80;;
19207;SDS011;9737;59.466;18.036;2022-09-09T04:35:37;2.10;;;1.90;;
19207;SDS011;9737;59.466;18.036;2022-09-09T04:38:06;1.98;;;1.80;;
19207;SDS011;9737;59.466;18.036;2022-09-09T04:40:37;1.85;;;1.75;;
19207;SDS011;9737;59.466;18.036;2022-09-09T04:43:07;2.65;;;1.70;;
19207;SDS011;9737;59.466;18.036;2022-09-09T04:45:39;2.33;;;1.80;;
19207;SDS011;9737;59.466;18.036;2022-09-09T04:48:08;3.22;;;2.00;;
19207;SDS011;9737;59.466;18.036;2022-09-09T04:50:36;3.30;;;1.75;;
19207;SDS011;9737;59.466;18.036;2022-09-09T04:53:05;1.85;;;1.73;;
19207;SDS011;9737;59.466;18.036;2022-09-09T04:55:34;3.47;;;1.70;;
19207;SDS011;9737;59.466;18.036;2022-09-09T04:58:04;3.35;;;1.92;;
19207;SDS011;9737;59.466;18.036;2022-09-09T05:00:33;2.78;;;1.80;;
19207;SDS011;9737;59.466;18.036;2022-09-09T05:03:02;2.17;;;1.80;;
19207;SDS011;9737;59.466;18.036;2022-09-09T05:05:31;6.80;;;2.35;;
19207;SDS011;9737;59.466;18.036;2022-09-09T05:08:01;10.32;;;2.13;;
19207;SDS011;9737;59.466;18.036;2022-09-09T05:10:30;10.57;;;2.10;;
19207;SDS011;9737;59.466;18.036;2022-09-09T05:12:59;7.75;;;2.03;;
19207;SDS011;9737;59.466;18.036;2022-09-09T05:15:28;4.00;;;1.70;;
19207;SDS011;9737;59.466;18.036;2022-09-09T05:17:56;2.65;;;1.73;;
19207;SDS011;9737;59.466;18.036;2022-09-09T05:20:25;2.40;;;1.60;;
19207;SDS011;9737;59.466;18.036;2022-09-09T05:22:53;2.92;;;1.80;;
19207;SDS011;9737;59.466;18.036;2022-09-09T05:25:21;2.45;;;1.48;;
19207;SDS011;9737;59.466;18.036;2022-09-09T05:27:52;4.78;;;1.88;;
19207;SDS011;9737;59.466;18.036;2022-09-09T05:30:21;2.05;;;1.80;;
19207;SDS011;9737;59.466;18.036;2022-09-09T05:32:56;2.40;;;1.98;;
19207;SDS011;9737;59.466;18.036;2022-09-09T05:35:24;2.00;;;1.63;;
19207;SDS011;9737;59.466;18.036;2022-09-09T05:37:52;4.05;;;1.88;;
19207;SDS011;9737;59.466;18.036;2022-09-09T05:40:22;2.25;;;1.90;;
19207;SDS011;9737;59.466;18.036;2022-09-09T05:42:50;2.05;;;1.77;;
19207;SDS011;9737;59.466;18.036;2022-09-09T05:45:19;2.60;;;1.60;;
19207;SDS011;9737;59.466;18.036;2022-09-09T05:47:51;2.67;;;1.55;;
19207;SDS011;9737;59.466;18.036;2022-09-09T05:50:21;3.42;;;1.77;;
19207;SDS011;9737;59.466;18.036;2022-09-09T05:52:54;2.15;;;1.80;;
19207;SDS011;9737;59.466;18.036;2022-09-09T05:55:22;2.30;;;1.60;;
19207;SDS011;9737;59.466;18.036;2022-09-09T05:57:51;3.13;;;1.45;;
19207;SDS011;9737;59.466;18.036;2022-09-09T06:00:19;2.08;;;1.50;;
19207;SDS011;9737;59.466;18.036;2022-09-09T06:02:50;2.20;;;1.40;;
19207;SDS011;9737;59.466;18.036;2022-09-09T06:05:19;3.33;;;1.38;;
19207;SDS011;9737;59.466;18.036;2022-09-09T06:07:53;5.10;;;1.40;;
19207;SDS011;9737;59.466;18.036;2022-09-09T06:10:21;3.67;;;1.13;;
19207;SDS011;9737;59.466;18.036;2022-09-09T06:12:52;2.25;;;1.30;;
19207;SDS011;9737;59.466;18.036;2022-09-09T06:15:20;0.90;;;0.90;;
19207;SDS011;9737;59.466;18.036;2022-09-09T06:17:53;2.17;;;1.10;;
19207;SDS011;9737;59.466;18.036;2022-09-09T06:20:21;2.67;;;0.95;;
19207;SDS011;9737;59.466;18.036;2022-09-09T06:22:49;3.13;;;1.02;;
19207;SDS011;9737;59.466;18.036;2022-09-09T06:25:19;3.05;;;1.20;;
19207;SDS011;9737;59.466;18.036;2022-09-09T06:27:48;4.78;;;1.10;;
19207;SDS011;9737;59.466;18.036;2022-09-09T06:30:17;1.58;;;1.00;;
19207;SDS011;9737;59.466;18.036;2022-09-09T06:32:44;9.18;;;1.08;;
19207;SDS011;9737;59.466;18.036;2022-09-09T06:35:13;3.00;;;0.90;;
19207;SDS011;9737;59.466;18.036;2022-09-09T06:37:44;2.40;;;0.90;;
19207;SDS011;9737;59.466;18.036;2022-09-09T06:40:12;1.98;;;1.13;;
19207;SDS011;9737;59.466;18.036;2022-09-09T06:42:43;3.67;;;0.90;;
19207;SDS011;9737;59.466;18.036;2022-09-09T06:45:11;3.78;;;1.02;;
19207;SDS011;9737;59.466;18.036;2022-09-09T06:47:39;5.32;;;1.13;;
19207;SDS011;9737;59.466;18.036;2022-09-09T06:50:07;1.42;;;0.93;;
19207;SDS011;9737;59.466;18.036;2022-09-09T06:52:37;3.60;;;1.10;;
19207;SDS011;9737;59.466;18.036;2022-09-09T06:55:05;3.72;;;1.00;;
19207;SDS011;9737;59.466;18.036;2022-09-09T06:57:34;1.50;;;0.70;;
19207;SDS011;9737;59.466;18.036;2022-09-09T07:00:05;1.88;;;1.00;;
19207;SDS011;9737;59.466;18.036;2022-09-09T07:02:34;6.05;;;1.20;;
19207;SDS011;9737;59.466;18.036;2022-09-09T07:05:06;1.83;;;1.02;;
19207;SDS011;9737;59.466;18.036;2022-09-09T07:07:35;4.68;;;0.93;;
19207;SDS011;9737;59.466;18.036;2022-09-09T07:10:03;3.33;;;0.93;;
19207;SDS011;9737;59.466;18.036;2022-09-09T07:12:32;5.38;;;0.90;;
19207;SDS011;9737;59.466;18.036;2022-09-09T07:14:59;1.88;;;1.00;;
19207;SDS011;9737;59.466;18.036;2022-09-09T07:17:29;2.22;;;0.90;;
19207;SDS011;9737;59.466;18.036;2022-09-09T07:19:57;1.73;;;1.00;;
19207;SDS011;9737;59.466;18.036;2022-09-09T07:22:25;4.95;;;1.20;;
19207;SDS011;9737;59.466;18.036;2022-09-09T07:24:55;1.83;;;0.93;;
19207;SDS011;9737;59.466;18.036;2022-09-09T07:27:23;2.40;;;0.90;;
19207;SDS011;9737;59.466;18.036;2022-09-09T07:29:51;1.17;;;1.08;;
19207;SDS011;9737;59.466;18.036;2022-09-09T07:32:20;3.45;;;0.95;;
19207;SDS011;9737;59.466;18.036;2022-09-09T07:34:50;1.17;;;1.05;;
19207;SDS011;9737;59.466;18.036;2022-09-09T07:37:19;5.13;;;1.08;;
19207;SDS011;9737;59.466;18.036;2022-09-09T07:39:48;2.25;;;0.90;;
19207;SDS011;9737;59.466;18.036;2022-09-09T07:42:17;1.58;;;1.00;;
19207;SDS011;9737;59.466;18.036;2022-09-09T07:44:45;2.88;;;1.00;;
19207;SDS011;9737;59.466;18.036;2022-09-09T07:47:37;1.00;;;0.90;;
19207;SDS011;9737;59.466;18.036;2022-09-09T07:50:09;1.50;;;0.90;;
19207;SDS011;9737;59.466;18.036;2022-09-09T07:52:37;4.15;;;0.88;;
19207;SDS011;9737;59.466;18.036;2022-09-09T07:55:05;3.85;;;1.10;;
19207;SDS011;9737;59.466;18.036;2022-09-09T07:57:33;5.55;;;1.23;;
19207;SDS011;9737;59.466;18.036;2022-09-09T08:00:03;1.63;;;1.02;;
19207;SDS011;9737;59.466;18.036;2022-09-09T08:02:32;2.45;;;0.90;;
19207;SDS011;9737;59.466;18.036;2022-09-09T08:04:59;3.70;;;1.00;;
19207;SDS011;9737;59.466;18.036;2022-09-09T08:07:29;2.42;;;0.90;;
19207;SDS011;9737;59.466;18.036;2022-09-09T08:09:57;5.30;;;0.80;;
19207;SDS011;9737;59.466;18.036;2022-09-09T08:12:25;5.57;;;1.00;;
19207;SDS011;9737;59.466;18.036;2022-09-09T08:14:53;2.97;;;0.90;;
19207;SDS011;9737;59.466;18.036;2022-09-09T08:17:21;1.77;;;0.80;;
19207;SDS011;9737;59.466;18.036;2022-09-09T08:19:49;7.43;;;1.00;;
19207;SDS011;9737;59.466;18.036;2022-09-09T08:22:17;1.73;;;0.90;;
19207;SDS011;9737;59.466;18.036;2022-09-09T08:24:47;2.05;;;1.05;;
19207;SDS011;9737;59.466;18.036;2022-09-09T08:27:14;2.05;;;0.80;;
19207;SDS011;9737;59.466;18.036;2022-09-09T08:29:43;2.97;;;0.93;;
19207;SDS011;9737;59.466;18.036;2022-09-09T08:32:10;2.75;;;1.08;;
19207;SDS011;9737;59.466;18.036;2022-09-09T08:34:39;2.00;;;0.95;;
19207;SDS011;9737;59.466;18.036;2022-09-09T08:37:12;5.38;;;1.00;;
19207;SDS011;9737;59.466;18.036;2022-09-09T08:39:39;3.40;;;1.00;;
19207;SDS011;9737;59.466;18.036;2022-09-09T08:42:12;3.95;;;1.13;;
19207;SDS011;9737;59.466;18.036;2022-09-09T08:44:57;1.70;;;0.90;;
19207;SDS011;9737;59.466;18.036;2022-09-09T08:47:39;4.63;;;1.10;;
19207;SDS011;9737;59.466;18.036;2022-09-09T08:50:16;2.47;;;0.90;;
19207;SDS011;9737;59.466;18.036;2022-09-09T08:52:52;5.72;;;1.35;;
19207;SDS011;9737;59.466;18.036;2022-09-09T08:55:27;2.28;;;1.08;;
19207;SDS011;9737;59.466;18.036;2022-09-09T08:58:06;4.65;;;1.20;;
19207;SDS011;9737;59.466;18.036;2022-09-09T09:00:40;3.22;;;1.05;;
19207;SDS011;9737;59.466;18.036;2022-09-09T09:03:21;0.93;;;0.80;;
19207;SDS011;9737;59.466;18.036;2022-09-09T09:05:59;2.33;;;1.02;;
19207;SDS011;9737;59.466;18.036;2022-09-09T09:08:33;3.22;;;1.00;;
19207;SDS011;9737;59.466;18.036;2022-09-09T09:11:10;2.38;;;0.90;;
19207;SDS011;9737;59.466;18.036;2022-09-09T09:13:40;1.98;;;1.00;;
19207;SDS011;9737;59.466;18.036;2022-09-09T09:16:16;5.15;;;0.90;;
19207;SDS011;9737;59.466;18.036;2022-09-09T09:18:49;1.52;;;1.00;;
19207;SDS011;9737;59.466;18.036;2022-09-09T09:21:20;2.63;;;1.17;;
19207;SDS011;9737;59.466;18.036;2022-09-09T09:23:56;1.00;;;0.90;;
19207;SDS011;9737;59.466;18.036;2022-09-09T09:26:25;1.73;;;1.00;;
19207;SDS011;9737;59.466;18.036;2022-09-09T09:28:59;1.33;;;0.90;;
19207;SDS011;9737;59.466;18.036;2022-09-09T09:31:31;1.80;;;1.10;;
19207;SDS011;9737;59.466;18.036;2022-09-09T09:33:59;3.95;;;1.08;;
19207;SDS011;9737;59.466;18.036;2022-09-09T09:36:37;1.90;;;1.10;;
19207;SDS011;9737;59.466;18.036;2022-09-09T09:39:08;4.47;;;1.00;;
19207;SDS011;9737;59.466;18.036;2022-09-09T09:41:56;3.13;;;0.93;;
19207;SDS011;9737;59.466;18.036;2022-09-09T09:44:33;3.05;;;1.15;;
19207;SDS011;9737;59.466;18.036;2022-09-09T09:47:06;3.55;;;0.88;;
19207;SDS011;9737;59.466;18.036;2022-09-09T09:49:37;1.20;;;0.93;;
19207;SDS011;9737;59.466;18.036;2022-09-09T09:52:06;3.08;;;1.08;;
19207;SDS011;9737;59.466;18.036;2022-09-09T09:54:37;3.30;;;1.10;;
19207;SDS011;9737;59.466;18.036;2022-09-09T09:57:08;1.30;;;0.90;;
19207;SDS011;9737;59.466;18.036;2022-09-09T09:59:39;2.30;;;0.98;;
19207;SDS011;9737;59.466;18.036;2022-09-09T10:05:00;2.60;;;0.93;;
19207;SDS011;9737;59.466;18.036;2022-09-09T10:07:30;2.53;;;1.40;;
19207;SDS011;9737;59.466;18.036;2022-09-09T10:09:59;2.75;;;1.00;;
19207;SDS011;9737;59.466;18.036;2022-09-09T10:12:30;3.20;;;1.20;;
19207;SDS011;9737;59.466;18.036;2022-09-09T10:15:29;2.83;;;1.15;;
19207;SDS011;9737;59.466;18.036;2022-09-09T10:18:05;1.20;;;0.95;;
19207;SDS011;9737;59.466;18.036;2022-09-09T10:20:50;4.13;;;1.10;;
19207;SDS011;9737;59.466;18.036;2022-09-09T10:23:28;2.58;;;1.00;;
19207;SDS011;9737;59.466;18.036;2022-09-09T10:26:13;4.60;;;1.00;;
19207;SDS011;9737;59.466;18.036;2022-09-09T10:28:54;2.92;;;0.90;;
19207;SDS011;9737;59.466;18.036;2022-09-09T10:31:35;2.72;;;0.93;;
19207;SDS011;9737;59.466;18.036;2022-09-09T10:34:19;3.33;;;0.90;;
19207;SDS011;9737;59.466;18.036;2022-09-09T10:37:03;3.03;;;0.85;;
19207;SDS011;9737;59.466;18.036;2022-09-09T10:39:43;3.55;;;0.85;;
19207;SDS011;9737;59.466;18.036;2022-09-09T10:42:12;1.73;;;0.80;;
19207;SDS011;9737;59.466;18.036;2022-09-09T10:44:45;2.97;;;0.98;;
19207;SDS011;9737;59.466;18.036;2022-09-09T10:47:26;1.60;;;0.70;;
19207;SDS011;9737;59.466;18.036;2022-09-09T10:50:16;0.70;;;0.70;;
19207;SDS011;9737;59.466;18.036;2022-09-09T10:53:18;1.85;;;0.75;;
19207;SDS011;9737;59.466;18.036;2022-09-09T10:55:56;3.58;;;0.80;;
19207;SDS011;9737;59.466;18.036;2022-09-09T10:58:31;2.05;;;0.90;;
19207;SDS011;9737;59.466;18.036;2022-09-09T11:01:10;1.60;;;0.70;;
19207;SDS011;9737;59.466;18.036;2022-09-09T11:03:45;4.78;;;0.95;;
19207;SDS011;9737;59.466;18.036;2022-09-09T11:06:22;2.65;;;0.82;;
19207;SDS011;9737;59.466;18.036;2022-09-09T11:08:57;1.15;;;0.80;;
19207;SDS011;9737;59.466;18.036;2022-09-09T11:11:29;2.03;;;0.88;;
19207;SDS011;9737;59.466;18.036;2022-09-09T11:14:03;2.88;;;1.10;;
19207;SDS011;9737;59.466;18.036;2022-09-09T11:16:44;2.13;;;0.80;;
19207;SDS011;9737;59.466;18.036;2022-09-09T11:19:21;2.90;;;1.00;;
19207;SDS011;9737;59.466;18.036;2022-09-09T11:21:55;1.65;;;1.15;;
19207;SDS011;9737;59.466;18.036;2022-09-09T11:24:27;1.40;;;0.90;;
19207;SDS011;9737;59.466;18.036;2022-09-09T11:27:00;3.70;;;1.10;;
19207;SDS011;9737;59.466;18.036;2022-09-09T11:36:06;3.00;;;0.95;;
19207;SDS011;9737;59.466;18.036;2022-09-09T11:38:59;3.33;;;0.93;;
19207;SDS011;9737;59.466;18.036;2022-09-09T11:41:35;2.97;;;0.90;;
19207;SDS011;9737;59.466;18.036;2022-09-09T11:44:09;2.17;;;1.00;;
19207;SDS011;9737;59.466;18.036;2022-09-09T11:46:40;1.65;;;1.00;;
19207;SDS011;9737;59.466;18.036;2022-09-09T11:49:21;2.53;;;1.20;;
19207;SDS011;9737;59.466;18.036;2022-09-09T11:51:56;2.17;;;1.27;;
19207;SDS011;9737;59.466;18.036;2022-09-09T11:54:28;1.20;;;1.08;;
19207;SDS011;9737;59.466;18.036;2022-09-09T11:56:58;1.55;;;1.10;;
19207;SDS011;9737;59.466;18.036;2022-09-09T11:59:27;2.03;;;1.13;;
19207;SDS011;9737;59.466;18.036;2022-09-09T12:01:57;1.05;;;0.90;;
19207;SDS011;9737;59.466;18.036;2022-09-09T12:04:28;1.80;;;1.10;;
19207;SDS011;9737;59.466;18.036;2022-09-09T12:07:02;3.30;;;1.20;;
19207;SDS011;9737;59.466;18.036;2022-09-09T12:09:42;2.15;;;1.25;;
19207;SDS011;9737;59.466;18.036;2022-09-09T12:12:21;1.85;;;1.10;;
19207;SDS011;9737;59.466;18.036;2022-09-09T12:14:55;1.85;;;1.17;;
19207;SDS011;9737;59.466;18.036;2022-09-09T12:17:47;7.20;;;1.30;;
19207;SDS011;9737;59.466;18.036;2022-09-09T12:20:19;2.67;;;1.38;;
19207;SDS011;9737;59.466;18.036;2022-09-09T12:22:53;1.58;;;1.08;;
19207;SDS011;9737;59.466;18.036;2022-09-09T12:25:33;2.97;;;1.15;;
19207;SDS011;9737;59.466;18.036;2022-09-09T12:28:13;1.88;;;1.15;;
19207;SDS011;9737;59.466;18.036;2022-09-09T12:30:47;1.30;;;1.08;;
19207;SDS011;9737;59.466;18.036;2022-09-09T12:33:21;2.22;;;1.13;;
19207;SDS011;9737;59.466;18.036;2022-09-09T12:35:51;1.50;;;1.23;;
19207;SDS011;9737;59.466;18.036;2022-09-09T12:38:26;5.55;;;1.33;;
19207;SDS011;9737;59.466;18.036;2022-09-09T12:40:58;1.58;;;1.13;;
19207;SDS011;9737;59.466;18.036;2022-09-09T12:43:30;2.63;;;1.17;;
19207;SDS011;9737;59.466;18.036;2022-09-09T12:45:59;5.05;;;1.40;;
19207;SDS011;9737;59.466;18.036;2022-09-09T12:48:31;1.63;;;1.23;;
19207;SDS011;9737;59.466;18.036;2022-09-09T12:51:04;2.03;;;1.30;;
19207;SDS011;9737;59.466;18.036;2022-09-09T12:53:43;3.75;;;1.33;;
19207;SDS011;9737;59.466;18.036;2022-09-09T12:56:18;1.60;;;1.00;;
19207;SDS011;9737;59.466;18.036;2022-09-09T12:58:50;1.67;;;1.20;;
19207;SDS011;9737;59.466;18.036;2022-09-09T13:01:21;4.60;;;1.30;;
19207;SDS011;9737;59.466;18.036;2022-09-09T13:03:51;2.95;;;1.27;;
19207;SDS011;9737;59.466;18.036;2022-09-09T13:06:20;2.75;;;1.27;;
19207;SDS011;9737;59.466;18.036;2022-09-09T13:08:56;3.35;;;1.30;;
19207;SDS011;9737;59.466;18.036;2022-09-09T13:11:44;2.17;;;1.20;;
19207;SDS011;9737;59.466;18.036;2022-09-09T13:14:17;1.40;;;1.10;;
19207;SDS011;9737;59.466;18.036;2022-09-09T13:16:54;2.40;;;1.20;;
19207;SDS011;9737;59.466;18.036;2022-09-09T13:19:24;2.03;;;1.35;;
19207;SDS011;9737;59.466;18.036;2022-09-09T13:21:54;2.67;;;1.30;;
19207;SDS011;9737;59.466;18.036;2022-09-09T13:24:26;3.58;;;1.30;;
19207;SDS011;9737;59.466;18.036;2022-09-09T13:26:57;3.20;;;1.40;;
19207;SDS011;9737;59.466;18.036;2022-09-09T13:29:28;1.40;;;1.30;;
19207;SDS011;9737;59.466;18.036;2022-09-09T13:32:03;2.17;;;1.23;;
19207;SDS011;9737;59.466;18.036;2022-09-09T13:34:33;2.28;;;1.20;;
19207;SDS011;9737;59.466;18.036;2022-09-09T13:37:02;2.00;;;1.38;;
19207;SDS011;9737;59.466;18.036;2022-09-09T13:39:34;5.57;;;1.50;;
19207;SDS011;9737;59.466;18.036;2022-09-09T13:42:05;3.63;;;1.15;;
19207;SDS011;9737;59.466;18.036;2022-09-09T13:44:34;3.38;;;1.25;;
19207;SDS011;9737;59.466;18.036;2022-09-09T13:47:05;5.53;;;1.63;;
19207;SDS011;9737;59.466;18.036;2022-09-09T13:49:45;2.75;;;1.25;;
19207;SDS011;9737;59.466;18.036;2022-09-09T13:52:14;2.42;;;1.20;;
19207;SDS011;9737;59.466;18.036;2022-09-09T13:54:48;1.63;;;1.23;;
19207;SDS011;9737;59.466;18.036;2022-09-09T13:57:18;2.55;;;1.40;;
19207;SDS011;9737;59.466;18.036;2022-09-09T13:59:47;1.30;;;1.20;;
19207;SDS011;9737;59.466;18.036;2022-09-09T14:02:32;2.22;;;1.30;;
19207;SDS011;9737;59.466;18.036;2022-09-09T14:05:01;3.05;;;1.55;;
19207;SDS011;9737;59.466;18.036;2022-09-09T14:07:29;3.10;;;1.30;;
19207;SDS011;9737;59.466;18.036;2022-09-09T14:09:59;2.65;;;1.30;;
19207;SDS011;9737;59.466;18.036;2022-09-09T14:12:27;2.08;;;1.20;;
19207;SDS011;9737;59.466;18.036;2022-09-09T14:14:55;1.60;;;1.27;;
19207;SDS011;9737;59.466;18.036;2022-09-09T14:17:23;2.33;;;1.50;;
19207;SDS011;9737;59.466;18.036;2022-09-09T14:19:51;5.30;;;1.30;;
19207;SDS011;9737;59.466;18.036;2022-09-09T14:22:19;2.40;;;1.40;;
19207;SDS011;9737;59.466;18.036;2022-09-09T14:24:48;2.20;;;1.20;;
19207;SDS011;9737;59.466;18.036;2022-09-09T14:27:18;2.05;;;1.33;;
19207;SDS011;9737;59.466;18.036;2022-09-09T14:29:46;3.15;;;1.55;;
19207;SDS011;9737;59.466;18.036;2022-09-09T14:32:14;3.70;;;1.38;;
19207;SDS011;9737;59.466;18.036;2022-09-09T14:34:42;3.45;;;1.50;;
19207;SDS011;9737;59.466;18.036;2022-09-09T14:37:13;1.75;;;1.30;;
19207;SDS011;9737;59.466;18.036;2022-09-09T14:39:44;2.63;;;1.58;;
19207;SDS011;9737;59.466;18.036;2022-09-09T14:42:13;1.58;;;1.30;;
19207;SDS011;9737;59.466;18.036;2022-09-09T14:44:43;5.65;;;1.35;;
19207;SDS011;9737;59.466;18.036;2022-09-09T14:47:11;3.63;;;1.27;;
19207;SDS011;9737;59.466;18.036;2022-09-09T14:49:39;1.85;;;1.40;;
19207;SDS011;9737;59.466;18.036;2022-09-09T14:52:11;2.13;;;1.40;;
19207;SDS011;9737;59.466;18.036;2022-09-09T14:54:40;2.85;;;1.42;;
19207;SDS011;9737;59.466;18.036;2022-09-09T14:57:09;2.38;;;1.27;;
19207;SDS011;9737;59.466;18.036;2022-09-09T14:59:37;2.88;;;1.02;;
19207;SDS011;9737;59.466;18.036;2022-09-09T15:02:07;2.10;;;1.20;;
19207;SDS011;9737;59.466;18.036;2022-09-09T15:04:36;1.95;;;1.30;;
19207;SDS011;9737;59.466;18.036;2022-09-09T15:07:04;2.20;;;1.42;;
19207;SDS011;9737;59.466;18.036;2022-09-09T15:09:32;2.20;;;1.70;;
19207;SDS011;9737;59.466;18.036;2022-09-09T15:12:00;1.73;;;1.27;;
19207;SDS011;9737;59.466;18.036;2022-09-09T15:14:29;2.97;;;1.30;;
19207;SDS011;9737;59.466;18.036;2022-09-09T15:16:57;2.70;;;1.27;;
19207;SDS011;9737;59.466;18.036;2022-09-09T15:19:27;4.72;;;1.00;;
19207;SDS011;9737;59.466;18.036;2022-09-09T15:21:55;2.05;;;1.30;;
19207;SDS011;9737;59.466;18.036;2022-09-09T15:24:23;2.22;;;1.10;;
19207;SDS011;9737;59.466;18.036;2022-09-09T15:26:52;1.83;;;1.15;;
19207;SDS011;9737;59.466;18.036;2022-09-09T15:29:20;2.75;;;1.42;;